Mindoro — SVAS8 — position and weather

sailwx.info

Track history (hours):
 
Tides and Currents Weather Stations Pressure Air Temp Water Temp Dewpoint Dewpoint Depression Visibility Wind Speed Wind Dir Waves Ship Positions

Mindoro

Last reported at 2014-Sep-05 06:09 UTC. Time now 2014-Oct-22 21:45 UTC.
Position S 34°42' E 018°21'.
Warning: this ship's position is 47 days out of date.

Length 245 m; draft 14.5 m.

Type: Tanker. MMSI: 240924000.

Date/timePositionNaut miles runAvg speedWind from/ knotsBaromVisibWave heightAir tempDewpointWater temp
2014-Sep-05 06:09S 34°42' E 018°21'710.7
2014-Sep-05 05:30S 34°44' E 018°29'1110.3
2014-Sep-05 04:28S 34°48' E 018°42'3210.3
2014-Sep-05 01:22S 34°57' E 019°19'10710.7
2014-Sep-04 15:25S 34°52' E 021°29'55611.4
2014-Sep-02 14:29S 30°13' E 031°01'1010.4
2014-Sep-02 13:32S 30°04' E 031°04'1010.2
2014-Sep-02 12:32S 29°54' E 031°07'2 1.7
2014-Sep-02 11:33S 29°53' E 031°08'1 0.9
2014-Sep-02 10:33S 29°52' E 031°09'1 0.9
2014-Sep-02 09:32S 29°52' E 031°10'4 4.0
2014-Sep-02 08:33S 29°50' E 031°14'6 6.2
2014-Sep-02 07:33S 29°46' E 031°20'7 7.4
2014-Sep-02 06:33S 29°43' E 031°27'8 8.3
2014-Sep-02 05:32S 29°39' E 031°36'9 8.8
2014-Sep-02 04:29S 29°34' E 031°45'9 9.2
2014-Sep-02 03:33S 29°30' E 031°54'3410.4
2014-Sep-02 00:18S 29°10' E 032°25'  
Track history (hours):
 
Tides and Currents Weather Stations Pressure Air Temp Water Temp Dewpoint Dewpoint Depression Visibility Wind Speed Wind Dir Waves Ship Positions

Mindoro

Last reported at 2014-Sep-05 06:09 UTC. Time now 2014-Oct-22 21:45 UTC.
Position S 34°42' E 018°21'.
Warning: this ship's position is 47 days out of date.

Length 245 m; draft 14.5 m.

Type: Tanker. MMSI: 240924000.

Date/timePositionNaut miles runAvg speedWind from/ knotsBaromVisibWave heightAir tempDewpointWater temp
2014-Sep-05 06:09S 34°42' E 018°21'710.7
2014-Sep-05 05:30S 34°44' E 018°29'1110.3
2014-Sep-05 04:28S 34°48' E 018°42'3210.3
2014-Sep-05 01:22S 34°57' E 019°19'10710.7
2014-Sep-04 15:25S 34°52' E 021°29'55611.4
2014-Sep-02 14:29S 30°13' E 031°01'1010.4
2014-Sep-02 13:32S 30°04' E 031°04'1010.2
2014-Sep-02 12:32S 29°54' E 031°07'2 1.7
2014-Sep-02 11:33S 29°53' E 031°08'1 0.9
2014-Sep-02 10:33S 29°52' E 031°09'1 0.9
2014-Sep-02 09:32S 29°52' E 031°10'4 4.0
2014-Sep-02 08:33S 29°50' E 031°14'6 6.2
2014-Sep-02 07:33S 29°46' E 031°20'7 7.4
2014-Sep-02 06:33S 29°43' E 031°27'8 8.3
2014-Sep-02 05:32S 29°39' E 031°36'9 8.8
2014-Sep-02 04:29S 29°34' E 031°45'9 9.2
2014-Sep-02 03:33S 29°30' E 031°54'3410.4
2014-Sep-02 00:18S 29°10' E 032°25'  

Dump ship's entire track history